createdAt,value
2023-05-14T00:00:55.800Z,12.54
2023-05-14T00:03:23.654Z,12.49
2023-05-14T00:05:52.358Z,12.44
2023-05-14T00:08:20.189Z,12.41
2023-05-14T00:10:47.923Z,12.30
2023-05-14T00:13:15.766Z,12.31
2023-05-14T00:15:43.618Z,12.24
2023-05-14T00:18:12.519Z,12.21
2023-05-14T00:20:41.292Z,12.17
2023-05-14T00:23:09.418Z,12.17
2023-05-14T00:25:37.483Z,12.10
2023-05-14T00:28:05.656Z,12.08
2023-05-14T00:30:33.893Z,12.06
2023-05-14T00:33:01.818Z,12.01
2023-05-14T00:35:29.718Z,11.99
2023-05-14T00:37:57.909Z,11.95
2023-05-14T00:40:27.269Z,11.91
2023-05-14T00:42:55.885Z,11.87
2023-05-14T00:45:23.776Z,11.85
2023-05-14T00:47:52.201Z,11.79
2023-05-14T00:50:20.584Z,11.77
2023-05-14T00:52:48.405Z,11.71
2023-05-14T00:55:16.845Z,11.65
2023-05-14T00:57:45.352Z,11.66
2023-05-14T01:00:13.674Z,11.66
2023-05-14T01:02:41.618Z,11.60
2023-05-14T01:05:10.180Z,11.59
2023-05-14T01:07:44.092Z,11.53
2023-05-14T01:10:25.619Z,11.45
2023-05-14T01:13:14.463Z,11.44
2023-05-14T01:15:43.166Z,11.50
2023-05-14T01:18:11.951Z,11.51
2023-05-14T01:20:39.788Z,11.46
2023-05-14T01:23:09.469Z,11.44
2023-05-14T01:25:37.721Z,11.40
2023-05-14T01:28:13.770Z,11.38
2023-05-14T01:30:49.365Z,11.37
2023-05-14T01:33:18.648Z,11.39
2023-05-14T01:35:46.652Z,11.35
2023-05-14T01:38:15.597Z,11.37
2023-05-14T01:40:44.415Z,11.37
2023-05-14T01:43:12.602Z,11.37
2023-05-14T01:45:42.542Z,11.40
2023-05-14T01:48:10.886Z,11.45
2023-05-14T01:50:38.824Z,11.58
2023-05-14T01:53:06.797Z,11.76
2023-05-14T01:55:34.575Z,12.08
2023-05-14T01:58:02.437Z,12.57
2023-05-14T02:00:30.674Z,12.91
2023-05-14T02:03:00.190Z,13.28
2023-05-14T02:05:28.194Z,13.50
2023-05-14T02:07:56.136Z,13.76
2023-05-14T02:10:24.221Z,13.96
2023-05-14T02:12:53.156Z,14.22
2023-05-14T02:15:21.363Z,14.24
2023-05-14T02:17:49.424Z,14.33
2023-05-14T02:20:17.507Z,14.59
2023-05-14T02:22:51.571Z,14.76
2023-05-14T02:25:19.410Z,14.82
2023-05-14T02:27:49.723Z,14.77
2023-05-14T02:30:17.641Z,14.56
2023-05-14T02:32:46.210Z,15.06
2023-05-14T02:35:14.195Z,15.35
2023-05-14T02:37:42.130Z,15.78
2023-05-14T02:40:10.607Z,16.22
2023-05-14T02:42:38.431Z,16.97
2023-05-14T02:45:06.951Z,17.32
2023-05-14T02:47:37.762Z,17.12
2023-05-14T02:50:06.944Z,17.30
2023-05-14T02:52:34.956Z,17.90
2023-05-14T02:55:03.099Z,18.13
2023-05-14T02:57:33.747Z,18.26
2023-05-14T03:00:01.621Z,18.32
2023-05-14T03:02:36.017Z,18.28
2023-05-14T03:05:04.389Z,18.53
2023-05-14T03:07:32.218Z,19.53
2023-05-14T03:10:00.793Z,19.89
2023-05-14T03:12:28.752Z,20.01
2023-05-14T03:14:56.615Z,19.88
2023-05-14T03:17:24.586Z,20.38
2023-05-14T03:19:52.376Z,20.95
2023-05-14T03:22:20.468Z,21.85
2023-05-14T03:24:48.964Z,21.87
2023-05-14T03:27:16.806Z,21.18
2023-05-14T03:29:44.613Z,21.11
2023-05-14T03:32:12.454Z,21.80
2023-05-14T03:34:40.246Z,21.93
2023-05-14T03:37:08.203Z,21.93
2023-05-14T03:39:36.316Z,21.55
2023-05-14T03:42:06.015Z,22.01
2023-05-14T03:44:33.808Z,22.20
2023-05-14T03:47:01.575Z,22.51
2023-05-14T03:49:29.581Z,22.96
2023-05-14T03:51:59.534Z,23.45
2023-05-14T03:54:27.450Z,23.42
2023-05-14T03:56:55.442Z,22.80
2023-05-14T03:59:23.214Z,22.64
2023-05-14T04:01:51.090Z,22.17
2023-05-14T04:04:20.381Z,22.42
2023-05-14T04:06:48.259Z,23.29
2023-05-14T04:09:16.154Z,23.67
2023-05-14T04:11:43.956Z,24.01
2023-05-14T04:14:12.079Z,23.04
2023-05-14T04:16:40.105Z,22.26
2023-05-14T04:19:08.091Z,22.10
2023-05-14T04:21:37.123Z,22.30
2023-05-14T04:24:05.351Z,22.14
2023-05-14T04:26:33.384Z,22.06
2023-05-14T04:29:03.236Z,22.48
2023-05-14T04:31:31.868Z,21.78
2023-05-14T04:33:59.707Z,20.83
2023-05-14T04:36:27.471Z,21.74
2023-05-14T04:38:55.202Z,21.77
2023-05-14T04:41:23.560Z,21.69
2023-05-14T04:43:51.812Z,21.09
2023-05-14T04:46:19.934Z,20.03
2023-05-14T04:48:48.464Z,19.63
2023-05-14T04:51:18.801Z,19.25
2023-05-14T04:53:46.693Z,19.39
2023-05-14T04:56:14.630Z,19.94
2023-05-14T04:58:42.507Z,20.65
2023-05-14T05:01:10.461Z,20.91
2023-05-14T05:03:38.372Z,20.90
2023-05-14T05:06:06.485Z,20.39
2023-05-14T05:08:34.560Z,20.31
2023-05-14T05:11:02.319Z,20.48
2023-05-14T05:13:30.083Z,20.12
2023-05-14T05:15:58.205Z,20.24
2023-05-14T05:18:26.290Z,20.57
2023-05-14T05:20:54.208Z,19.89
2023-05-14T05:23:21.990Z,19.28
2023-05-14T05:25:50.658Z,17.96
2023-05-14T05:28:18.425Z,18.12
2023-05-14T05:30:46.261Z,18.96
2023-05-14T05:33:14.258Z,19.07
2023-05-14T05:35:42.116Z,19.08
2023-05-14T05:38:10.046Z,19.50
2023-05-14T05:40:37.827Z,20.50
2023-05-14T05:43:05.806Z,20.69
2023-05-14T05:45:33.654Z,20.90
2023-05-14T05:48:01.626Z,21.21
2023-05-14T05:50:31.861Z,21.40
2023-05-14T05:52:59.780Z,20.74
2023-05-14T05:55:27.618Z,20.05
2023-05-14T05:57:55.480Z,20.15
2023-05-14T06:00:24.078Z,19.85
2023-05-14T06:02:54.012Z,20.34
2023-05-14T06:05:21.995Z,21.12
2023-05-14T06:07:49.847Z,21.38
2023-05-14T06:10:17.650Z,21.34
2023-05-14T06:12:45.689Z,21.67
2023-05-14T06:15:13.570Z,21.81
2023-05-14T06:17:41.715Z,22.20
2023-05-14T06:20:10.016Z,21.88
2023-05-14T06:22:38.179Z,22.09
2023-05-14T06:25:06.623Z,21.92
2023-05-14T06:27:34.342Z,22.23
2023-05-14T06:30:02.185Z,21.70
2023-05-14T06:32:33.757Z,20.82
2023-05-14T06:35:01.666Z,20.73
2023-05-14T06:37:30.139Z,21.07
2023-05-14T06:39:58.143Z,20.89
2023-05-14T06:42:26.740Z,20.54
2023-05-14T06:44:54.911Z,19.91
2023-05-14T06:47:25.250Z,19.85
2023-05-14T06:49:53.175Z,20.77
2023-05-14T06:52:20.931Z,20.34
2023-05-14T06:54:48.704Z,19.50
2023-05-14T06:57:16.580Z,18.76
2023-05-14T06:59:44.545Z,18.21
2023-05-14T07:02:12.879Z,18.18
2023-05-14T07:04:40.783Z,19.02
2023-05-14T07:07:10.687Z,19.36
2023-05-14T07:09:38.617Z,19.08
2023-05-14T07:12:07.237Z,18.65
2023-05-14T07:14:35.072Z,18.34
2023-05-14T07:17:02.915Z,18.03
2023-05-14T07:19:30.865Z,17.93
2023-05-14T07:21:58.619Z,17.75
2023-05-14T07:24:26.449Z,18.07
2023-05-14T07:26:54.720Z,18.56
2023-05-14T07:29:22.526Z,18.24
2023-05-14T07:31:50.429Z,18.47
2023-05-14T07:34:18.734Z,18.84
2023-05-14T07:36:46.920Z,18.87
2023-05-14T07:39:14.738Z,18.57
2023-05-14T07:41:42.525Z,18.67
2023-05-14T07:44:10.419Z,18.47
2023-05-14T07:46:38.347Z,18.54
2023-05-14T07:49:06.107Z,18.91
2023-05-14T07:51:34.120Z,18.86
2023-05-14T07:54:20.870Z,18.65
2023-05-14T07:56:48.667Z,18.68
2023-05-14T07:59:16.626Z,18.64
2023-05-14T08:01:44.587Z,18.42
2023-05-14T08:04:12.535Z,18.10
2023-05-14T08:06:40.414Z,18.08
2023-05-14T08:09:08.902Z,17.51
2023-05-14T08:11:36.755Z,17.24
2023-05-14T08:14:04.735Z,17.21
2023-05-14T08:16:35.921Z,17.32
2023-05-14T08:19:06.553Z,17.41
2023-05-14T08:21:34.363Z,17.37
2023-05-14T08:24:02.192Z,17.07
2023-05-14T08:26:30.081Z,17.07
2023-05-14T08:28:57.917Z,17.29
2023-05-14T08:31:28.573Z,17.58
2023-05-14T08:33:59.404Z,17.96
2023-05-14T08:36:27.361Z,17.89
2023-05-14T08:38:55.223Z,17.85
2023-05-14T08:41:23.232Z,17.94
2023-05-14T08:44:00.335Z,17.95
2023-05-14T08:46:30.757Z,17.77
2023-05-14T08:49:16.100Z,17.68
2023-05-14T08:51:47.184Z,17.84
2023-05-14T08:54:17.222Z,17.98
2023-05-14T08:56:46.713Z,17.69
2023-05-14T08:59:14.739Z,17.58
2023-05-14T09:01:48.280Z,17.73
2023-05-14T09:04:16.655Z,17.79
2023-05-14T09:06:51.869Z,17.63
2023-05-14T09:09:23.074Z,17.78
2023-05-14T09:11:52.334Z,17.94
2023-05-14T09:14:21.039Z,18.18
2023-05-14T09:16:50.117Z,18.07
2023-05-14T09:19:21.916Z,18.01
2023-05-14T09:21:50.113Z,18.02
2023-05-14T09:24:22.647Z,18.04
2023-05-14T09:26:55.153Z,17.79
2023-05-14T09:29:27.665Z,17.55
2023-05-14T09:31:56.856Z,17.69
2023-05-14T09:34:28.942Z,17.60
2023-05-14T09:36:58.720Z,17.63
2023-05-14T09:39:26.808Z,17.65
2023-05-14T09:41:55.240Z,17.80
2023-05-14T09:44:23.683Z,17.97
2023-05-14T09:46:52.740Z,17.98
2023-05-14T09:49:21.078Z,17.89
2023-05-14T09:51:49.602Z,17.99
2023-05-14T09:54:17.727Z,17.76
2023-05-14T09:56:45.578Z,17.60
2023-05-14T09:59:13.701Z,17.63
2023-05-14T10:01:43.773Z,17.67
2023-05-14T10:04:12.341Z,17.78
2023-05-14T10:06:42.255Z,17.58
2023-05-14T10:09:14.129Z,17.37
2023-05-14T10:11:46.432Z,17.27
2023-05-14T10:14:25.651Z,17.40
2023-05-14T10:16:54.294Z,17.57
2023-05-14T10:19:24.618Z,17.58
2023-05-14T10:22:04.622Z,17.72
2023-05-14T10:24:33.064Z,17.98
2023-05-14T10:27:01.452Z,18.23
2023-05-14T10:29:37.440Z,18.16
2023-05-14T10:32:07.220Z,18.06
2023-05-14T10:34:44.165Z,18.07
2023-05-14T10:37:14.883Z,17.96
2023-05-14T10:39:46.008Z,17.69
2023-05-14T10:42:27.658Z,17.62
2023-05-14T10:45:01.902Z,17.69
2023-05-14T10:47:37.488Z,17.60
2023-05-14T10:50:07.902Z,17.59
2023-05-14T10:52:35.931Z,17.54
2023-05-14T10:55:10.932Z,17.52
2023-05-14T10:57:39.843Z,17.74
2023-05-14T11:00:09.183Z,17.90
2023-05-14T11:02:38.773Z,18.07
2023-05-14T11:05:08.779Z,18.22
2023-05-14T11:07:38.648Z,18.26
2023-05-14T11:10:11.723Z,17.93
2023-05-14T11:12:41.171Z,17.72
2023-05-14T11:15:10.865Z,17.49
2023-05-14T11:17:40.827Z,17.25
2023-05-14T11:20:09.724Z,17.03
2023-05-14T11:22:39.327Z,17.14
2023-05-14T11:25:07.919Z,17.40
2023-05-14T11:27:38.303Z,17.49
2023-05-14T11:30:27.009Z,17.75
2023-05-14T11:32:56.036Z,17.95
2023-05-14T11:35:24.330Z,17.68
2023-05-14T11:37:52.749Z,17.54
2023-05-14T11:40:21.028Z,17.53
2023-05-14T11:42:51.555Z,17.63
2023-05-14T11:45:30.120Z,17.85
2023-05-14T11:47:58.255Z,18.00
2023-05-14T11:50:26.257Z,17.72
2023-05-14T11:52:57.322Z,17.81
2023-05-14T11:55:25.945Z,17.89
2023-05-14T11:58:01.519Z,17.84
2023-05-14T12:00:29.380Z,17.74
2023-05-14T12:02:57.335Z,17.81
2023-05-14T12:05:25.674Z,17.77
2023-05-14T12:07:53.441Z,17.57
2023-05-14T12:10:21.274Z,17.69
2023-05-14T12:12:49.427Z,17.80
2023-05-14T12:15:17.480Z,17.62
2023-05-14T12:17:51.953Z,17.24
2023-05-14T12:20:20.261Z,16.95
2023-05-14T12:22:48.212Z,17.03
2023-05-14T12:25:16.625Z,17.14
2023-05-14T12:27:45.717Z,17.18
2023-05-14T12:32:46.014Z,17.36
2023-05-14T12:35:13.868Z,17.36
2023-05-14T12:37:42.699Z,17.45
2023-05-14T12:40:14.112Z,17.58
2023-05-14T12:42:42.025Z,17.87
2023-05-14T12:45:10.384Z,17.92
2023-05-14T12:47:38.337Z,18.04
2023-05-14T12:50:07.044Z,18.05
2023-05-14T12:52:39.653Z,17.91
2023-05-14T12:55:13.467Z,17.81
2023-05-14T12:57:42.104Z,17.69
2023-05-14T13:00:13.937Z,17.61
2023-05-14T13:02:43.713Z,17.41
2023-05-14T13:05:15.428Z,17.13
2023-05-14T13:07:43.379Z,17.03
2023-05-14T13:10:11.732Z,16.97
2023-05-14T13:12:39.927Z,16.96
2023-05-14T13:15:10.170Z,16.70
2023-05-14T13:17:38.204Z,16.61
2023-05-14T13:20:06.893Z,16.58
2023-05-14T13:22:37.814Z,16.46
2023-05-14T13:25:06.551Z,16.53
2023-05-14T13:27:35.986Z,16.65
2023-05-14T13:30:04.555Z,16.66
2023-05-14T13:32:33.059Z,16.70
2023-05-14T13:35:00.984Z,16.51
2023-05-14T13:37:31.295Z,16.47
2023-05-14T13:40:04.646Z,16.42
2023-05-14T13:42:32.834Z,16.49
2023-05-14T13:45:01.274Z,16.32
2023-05-14T13:47:33.699Z,16.28
2023-05-14T13:50:01.819Z,16.32
2023-05-14T13:52:33.664Z,16.37
2023-05-14T13:55:01.839Z,16.20
2023-05-14T13:57:33.952Z,16.24
2023-05-14T14:00:01.759Z,16.19
2023-05-14T14:02:34.523Z,16.05
2023-05-14T14:05:02.525Z,16.02
2023-05-14T14:07:32.723Z,16.03
2023-05-14T14:10:01.738Z,16.00
2023-05-14T14:12:33.528Z,16.17
2023-05-14T14:15:02.898Z,16.23
2023-05-14T14:17:35.134Z,16.17
2023-05-14T14:20:06.139Z,16.17
2023-05-14T14:22:34.353Z,16.02
2023-05-14T14:25:02.664Z,16.03
2023-05-14T14:27:34.157Z,16.14
2023-05-14T14:30:01.987Z,16.09
2023-05-14T14:32:33.203Z,15.99
2023-05-14T14:35:01.506Z,15.89
2023-05-14T14:37:30.978Z,15.84
2023-05-14T14:39:58.875Z,15.77
2023-05-14T14:42:26.666Z,15.79
2023-05-14T14:44:54.433Z,15.86
2023-05-14T14:47:22.317Z,15.90
2023-05-14T14:49:50.098Z,15.75
2023-05-14T14:52:18.000Z,15.75
2023-05-14T14:54:45.801Z,15.66
2023-05-14T14:57:13.594Z,15.58
2023-05-14T14:59:41.524Z,15.58
2023-05-14T15:02:10.045Z,15.56
2023-05-14T15:04:38.844Z,15.49
2023-05-14T15:07:06.617Z,15.53
2023-05-14T15:09:34.354Z,15.50
2023-05-14T15:12:02.290Z,15.54
2023-05-14T15:14:30.153Z,15.43
2023-05-14T15:16:58.024Z,15.42
2023-05-14T15:19:25.853Z,15.45
2023-05-14T15:21:53.636Z,15.41
2023-05-14T15:24:24.043Z,15.44
2023-05-14T15:26:53.386Z,15.44
2023-05-14T15:29:21.613Z,15.39
2023-05-14T15:31:49.670Z,15.28
2023-05-14T15:34:17.596Z,15.23
2023-05-14T15:36:45.383Z,15.18
2023-05-14T15:39:13.173Z,15.26
2023-05-14T15:41:41.099Z,15.22
2023-05-14T15:44:08.966Z,15.23
2023-05-14T15:46:38.104Z,15.20
2023-05-14T15:49:06.215Z,15.20
2023-05-14T15:51:34.808Z,15.21
2023-05-14T15:54:02.720Z,15.16
2023-05-14T15:56:31.098Z,15.05
2023-05-14T15:58:59.034Z,14.93
2023-05-14T16:01:26.861Z,14.85
2023-05-14T16:03:54.996Z,14.84
2023-05-14T16:06:22.933Z,14.80
2023-05-14T16:08:52.400Z,14.68
2023-05-14T16:11:21.568Z,14.62
2023-05-14T16:13:49.388Z,14.60
2023-05-14T16:16:17.200Z,14.54
2023-05-14T16:18:45.205Z,14.45
2023-05-14T16:21:13.024Z,14.40
2023-05-14T16:23:41.399Z,14.33
2023-05-14T16:26:09.216Z,14.35
2023-05-14T16:28:37.077Z,14.30
2023-05-14T16:31:04.852Z,14.26
2023-05-14T16:33:32.685Z,14.26
2023-05-14T16:36:00.459Z,14.22
2023-05-14T16:38:28.195Z,14.15
2023-05-14T16:40:56.023Z,14.12
2023-05-14T16:43:23.863Z,14.10
2023-05-14T16:45:51.724Z,14.12
2023-05-14T16:48:19.547Z,14.11
2023-05-14T16:50:47.289Z,14.12
2023-05-14T16:53:15.059Z,14.10
2023-05-14T16:55:42.900Z,14.03
2023-05-14T16:58:10.897Z,14.00
2023-05-14T17:00:38.784Z,13.98
2023-05-14T17:03:07.411Z,13.94
2023-05-14T17:05:35.823Z,13.92
2023-05-14T17:08:04.865Z,13.78
2023-05-14T17:10:33.457Z,13.66
2023-05-14T17:13:01.364Z,13.61
2023-05-14T17:15:29.888Z,13.47
2023-05-14T17:17:57.970Z,13.41
2023-05-14T17:20:26.303Z,13.36
2023-05-14T17:22:54.039Z,13.27
2023-05-14T17:25:23.935Z,13.16
2023-05-14T17:27:52.900Z,13.10
2023-05-14T17:30:20.803Z,13.03
2023-05-14T17:32:50.900Z,13.02
2023-05-14T17:35:19.055Z,12.91
2023-05-14T17:37:46.891Z,12.92
2023-05-14T17:40:14.655Z,12.87
2023-05-14T17:42:42.579Z,12.81
2023-05-14T17:45:10.755Z,12.67
2023-05-14T17:47:38.631Z,12.72
2023-05-14T17:50:07.267Z,12.72
2023-05-14T17:52:35.338Z,12.67
2023-05-14T17:55:03.300Z,12.59
2023-05-14T17:57:32.171Z,12.57
2023-05-14T18:00:00.152Z,12.53
2023-05-14T18:02:28.217Z,12.52
2023-05-14T18:04:56.140Z,12.48
2023-05-14T18:07:24.156Z,12.45
2023-05-14T18:09:53.206Z,12.37
2023-05-14T18:12:21.038Z,12.31
2023-05-14T18:14:48.844Z,12.36
2023-05-14T18:17:17.431Z,12.31
2023-05-14T18:19:45.324Z,12.30
2023-05-14T18:22:13.266Z,12.25
2023-05-14T18:24:41.275Z,12.27
2023-05-14T18:27:09.217Z,12.26
2023-05-14T18:29:37.054Z,12.27
2023-05-14T18:32:05.540Z,12.23
2023-05-14T18:34:33.357Z,12.17
2023-05-14T18:37:02.428Z,12.10
2023-05-14T18:39:30.359Z,12.12
2023-05-14T18:41:58.244Z,12.08
2023-05-14T18:44:26.218Z,12.08
2023-05-14T18:46:55.163Z,12.02
2023-05-14T18:49:23.180Z,11.98
2023-05-14T18:51:51.110Z,12.01
2023-05-14T18:54:18.975Z,11.95
2023-05-14T18:56:49.761Z,11.98
2023-05-14T18:59:20.691Z,11.90
2023-05-14T19:01:48.709Z,11.77
2023-05-14T19:04:19.776Z,11.81
2023-05-14T19:06:53.983Z,11.75
2023-05-14T19:09:22.062Z,11.71
2023-05-14T19:11:53.060Z,11.82
2023-05-14T19:14:21.436Z,11.75
2023-05-14T19:16:49.319Z,11.76
2023-05-14T19:19:17.402Z,11.75
2023-05-14T19:21:45.236Z,11.76
2023-05-14T19:24:23.264Z,11.69
2023-05-14T19:26:51.200Z,11.67
2023-05-14T19:29:19.211Z,11.54
2023-05-14T19:31:47.492Z,11.60
2023-05-14T19:34:15.449Z,11.50
2023-05-14T19:36:43.395Z,11.49
2023-05-14T19:39:11.194Z,11.52
2023-05-14T19:41:39.254Z,11.50
2023-05-14T19:44:07.192Z,11.55
2023-05-14T19:46:37.408Z,11.51
2023-05-14T19:49:05.292Z,11.44
2023-05-14T19:51:33.254Z,11.38
2023-05-14T19:54:01.325Z,11.38
2023-05-14T19:56:29.237Z,11.31
2023-05-14T19:58:57.032Z,11.31
2023-05-14T20:01:24.961Z,11.32
2023-05-14T20:03:52.976Z,11.32
2023-05-14T20:06:20.809Z,11.25
2023-05-14T20:08:48.875Z,11.25
2023-05-14T20:11:18.169Z,11.20
2023-05-14T20:13:46.277Z,11.19
2023-05-14T20:16:16.924Z,11.22
2023-05-14T20:18:45.058Z,11.21
2023-05-14T20:21:13.027Z,11.17
2023-05-14T20:23:40.943Z,11.19
2023-05-14T20:26:08.747Z,11.19
2023-05-14T20:28:36.588Z,11.15
2023-05-14T20:31:04.516Z,11.13
2023-05-14T20:33:32.457Z,11.16
2023-05-14T20:36:00.427Z,11.07
2023-05-14T20:38:29.598Z,11.11
2023-05-14T20:40:57.910Z,11.09
2023-05-14T20:43:27.809Z,11.04
2023-05-14T20:45:58.479Z,11.08
2023-05-14T20:48:26.398Z,11.02
2023-05-14T20:50:54.424Z,10.96
2023-05-14T20:53:22.313Z,10.94
2023-05-14T20:55:50.178Z,10.96
2023-05-14T20:58:17.960Z,10.86
2023-05-14T21:00:46.021Z,10.91
2023-05-14T21:03:13.944Z,10.88
2023-05-14T21:05:43.782Z,10.83
2023-05-14T21:08:11.666Z,10.84
2023-05-14T21:10:39.442Z,10.82
2023-05-14T21:13:10.336Z,10.80
2023-05-14T21:15:38.182Z,10.81
2023-05-14T21:18:06.082Z,10.76
2023-05-14T21:20:34.037Z,10.76
2023-05-14T21:23:01.961Z,10.77
2023-05-14T21:25:31.068Z,10.81
2023-05-14T21:27:58.999Z,10.74
2023-05-14T21:30:26.832Z,10.70
2023-05-14T21:32:54.754Z,10.70
2023-05-14T21:35:25.938Z,10.72
2023-05-14T21:37:54.337Z,10.69
2023-05-14T21:40:22.143Z,10.74
2023-05-14T21:42:50.105Z,10.69
2023-05-14T21:45:18.072Z,10.69
2023-05-14T21:47:45.893Z,10.67
2023-05-14T21:50:13.907Z,10.64
2023-05-14T21:52:41.759Z,10.63
2023-05-14T21:55:09.724Z,10.61
2023-05-14T21:57:37.555Z,10.62
2023-05-14T22:00:10.154Z,10.54
2023-05-14T22:02:38.008Z,10.52
2023-05-14T22:05:06.115Z,10.45
2023-05-14T22:07:33.935Z,10.51
2023-05-14T22:10:01.768Z,10.53
2023-05-14T22:12:29.847Z,10.53
2023-05-14T22:14:57.602Z,10.51
2023-05-14T22:17:25.468Z,10.48
2023-05-14T22:19:53.182Z,10.46
2023-05-14T22:22:20.931Z,10.43
2023-05-14T22:24:48.685Z,10.39
2023-05-14T22:27:16.616Z,10.40
2023-05-14T22:29:44.732Z,10.34
2023-05-14T22:32:12.534Z,10.37
2023-05-14T22:34:40.381Z,10.40
2023-05-14T22:37:08.752Z,10.40
2023-05-14T22:39:36.501Z,10.33
2023-05-14T22:42:04.501Z,10.25
2023-05-14T22:44:32.380Z,10.25
2023-05-14T22:47:00.115Z,10.19
2023-05-14T22:49:27.907Z,10.24
2023-05-14T22:51:55.821Z,10.18
2023-05-14T22:54:23.702Z,10.18
2023-05-14T22:56:51.705Z,10.14
2023-05-14T22:59:20.581Z,10.14
2023-05-14T23:01:49.922Z,10.15
2023-05-14T23:04:17.841Z,10.08
2023-05-14T23:06:45.690Z,10.11
2023-05-14T23:09:13.522Z,10.10
2023-05-14T23:11:41.193Z,10.10
2023-05-14T23:14:09.116Z,10.10
2023-05-14T23:16:39.439Z,10.07
2023-05-14T23:19:07.388Z,10.01
2023-05-14T23:21:35.325Z,9.97
2023-05-14T23:24:03.098Z,9.89
2023-05-14T23:26:30.951Z,9.88
2023-05-14T23:28:58.753Z,9.87
2023-05-14T23:31:26.731Z,9.86
2023-05-14T23:33:54.721Z,9.79
2023-05-14T23:36:22.793Z,9.80
2023-05-14T23:38:51.021Z,9.84
2023-05-14T23:41:18.981Z,9.81
2023-05-14T23:43:46.817Z,9.76
2023-05-14T23:46:15.051Z,9.68
2023-05-14T23:48:42.892Z,9.70
2023-05-14T23:51:10.753Z,9.61
2023-05-14T23:53:38.568Z,9.57
2023-05-14T23:56:06.594Z,9.53
2023-05-14T23:58:34.402Z,9.52
